sensor_id;sensor_type;location;lat;lon;timestamp;P1;durP1;ratioP1;P2;durP2;ratioP2
5951;SDS011;3001;42.622;23.194;2022-12-04T00:01:25;8.33;;;6.13;;
5951;SDS011;3001;42.622;23.194;2022-12-04T00:03:53;7.13;;;6.07;;
5951;SDS011;3001;42.622;23.194;2022-12-04T00:06:21;8.67;;;5.67;;
5951;SDS011;3001;42.622;23.194;2022-12-04T00:08:50;6.53;;;5.93;;
5951;SDS011;3001;42.622;23.194;2022-12-04T00:11:18;5.93;;;5.37;;
5951;SDS011;3001;42.622;23.194;2022-12-04T00:13:48;7.47;;;6.63;;
5951;SDS011;3001;42.622;23.194;2022-12-04T00:16:15;10.70;;;7.30;;
5951;SDS011;3001;42.622;23.194;2022-12-04T00:18:43;7.27;;;6.10;;
5951;SDS011;3001;42.622;23.194;2022-12-04T00:21:11;6.33;;;5.73;;
5951;SDS011;3001;42.622;23.194;2022-12-04T00:23:40;8.37;;;6.10;;
5951;SDS011;3001;42.622;23.194;2022-12-04T00:26:13;7.23;;;5.63;;
5951;SDS011;3001;42.622;23.194;2022-12-04T00:28:40;6.80;;;6.10;;
5951;SDS011;3001;42.622;23.194;2022-12-04T00:31:08;7.20;;;5.97;;
5951;SDS011;3001;42.622;23.194;2022-12-04T00:33:36;5.67;;;5.10;;
5951;SDS011;3001;42.622;23.194;2022-12-04T00:36:04;5.53;;;5.03;;
5951;SDS011;3001;42.622;23.194;2022-12-04T00:38:33;5.30;;;4.80;;
5951;SDS011;3001;42.622;23.194;2022-12-04T00:41:00;4.63;;;4.23;;
5951;SDS011;3001;42.622;23.194;2022-12-04T00:43:29;5.27;;;4.83;;
5951;SDS011;3001;42.622;23.194;2022-12-04T00:45:56;5.23;;;4.73;;
5951;SDS011;3001;42.622;23.194;2022-12-04T00:48:23;5.67;;;5.07;;
5951;SDS011;3001;42.622;23.194;2022-12-04T00:50:50;5.07;;;4.67;;
5951;SDS011;3001;42.622;23.194;2022-12-04T00:53:18;4.87;;;4.47;;
5951;SDS011;3001;42.622;23.194;2022-12-04T00:55:45;5.30;;;4.80;;
5951;SDS011;3001;42.622;23.194;2022-12-04T00:58:11;5.67;;;5.07;;
5951;SDS011;3001;42.622;23.194;2022-12-04T01:00:40;4.87;;;4.40;;
5951;SDS011;3001;42.622;23.194;2022-12-04T01:03:07;6.03;;;4.33;;
5951;SDS011;3001;42.622;23.194;2022-12-04T01:05:36;8.07;;;4.40;;
5951;SDS011;3001;42.622;23.194;2022-12-04T01:08:04;4.50;;;4.13;;
5951;SDS011;3001;42.622;23.194;2022-12-04T01:10:31;4.83;;;4.33;;
5951;SDS011;3001;42.622;23.194;2022-12-04T01:12:57;4.53;;;4.13;;
5951;SDS011;3001;42.622;23.194;2022-12-04T01:15:24;4.87;;;4.47;;
5951;SDS011;3001;42.622;23.194;2022-12-04T01:17:52;4.63;;;4.20;;
5951;SDS011;3001;42.622;23.194;2022-12-04T01:20:19;5.40;;;4.90;;
5951;SDS011;3001;42.622;23.194;2022-12-04T01:22:46;5.03;;;4.60;;
5951;SDS011;3001;42.622;23.194;2022-12-04T01:25:12;4.73;;;4.07;;
5951;SDS011;3001;42.622;23.194;2022-12-04T01:27:39;4.90;;;4.50;;
5951;SDS011;3001;42.622;23.194;2022-12-04T01:30:06;4.57;;;4.17;;
5951;SDS011;3001;42.622;23.194;2022-12-04T01:32:33;4.20;;;3.90;;
5951;SDS011;3001;42.622;23.194;2022-12-04T01:35:02;4.30;;;3.90;;
5951;SDS011;3001;42.622;23.194;2022-12-04T01:37:29;5.03;;;4.53;;
5951;SDS011;3001;42.622;23.194;2022-12-04T01:39:56;4.83;;;4.40;;
5951;SDS011;3001;42.622;23.194;2022-12-04T01:42:23;5.70;;;5.20;;
5951;SDS011;3001;42.622;23.194;2022-12-04T01:47:57;4.17;;;3.87;;
5951;SDS011;3001;42.622;23.194;2022-12-04T01:50:31;5.70;;;4.23;;
5951;SDS011;3001;42.622;23.194;2022-12-04T01:52:58;4.70;;;4.20;;
5951;SDS011;3001;42.622;23.194;2022-12-04T01:55:25;5.33;;;4.83;;
5951;SDS011;3001;42.622;23.194;2022-12-04T01:57:52;4.70;;;4.00;;
5951;SDS011;3001;42.622;23.194;2022-12-04T02:00:19;4.73;;;4.33;;
5951;SDS011;3001;42.622;23.194;2022-12-04T02:02:46;5.17;;;4.53;;
5951;SDS011;3001;42.622;23.194;2022-12-04T02:05:14;4.50;;;4.10;;
5951;SDS011;3001;42.622;23.194;2022-12-04T02:07:44;5.07;;;4.67;;
5951;SDS011;3001;42.622;23.194;2022-12-04T02:10:14;5.60;;;5.03;;
5951;SDS011;3001;42.622;23.194;2022-12-04T02:12:42;4.70;;;4.40;;
5951;SDS011;3001;42.622;23.194;2022-12-04T02:15:16;5.50;;;5.00;;
5951;SDS011;3001;42.622;23.194;2022-12-04T02:17:50;5.77;;;5.27;;
5951;SDS011;3001;42.622;23.194;2022-12-04T02:20:27;5.00;;;4.50;;
5951;SDS011;3001;42.622;23.194;2022-12-04T02:23:10;4.87;;;4.37;;
5951;SDS011;3001;42.622;23.194;2022-12-04T02:25:47;6.50;;;5.17;;
5951;SDS011;3001;42.622;23.194;2022-12-04T02:28:26;7.90;;;5.20;;
5951;SDS011;3001;42.622;23.194;2022-12-04T02:30:59;5.47;;;4.77;;
5951;SDS011;3001;42.622;23.194;2022-12-04T02:33:29;4.93;;;4.53;;
5951;SDS011;3001;42.622;23.194;2022-12-04T02:36:01;6.40;;;5.30;;
5951;SDS011;3001;42.622;23.194;2022-12-04T02:38:34;4.97;;;4.67;;
5951;SDS011;3001;42.622;23.194;2022-12-04T02:41:05;6.43;;;5.67;;
5951;SDS011;3001;42.622;23.194;2022-12-04T02:43:40;5.40;;;4.90;;
5951;SDS011;3001;42.622;23.194;2022-12-04T02:46:10;4.73;;;4.40;;
5951;SDS011;3001;42.622;23.194;2022-12-04T02:48:43;5.00;;;4.60;;
5951;SDS011;3001;42.622;23.194;2022-12-04T02:51:14;4.80;;;4.37;;
5951;SDS011;3001;42.622;23.194;2022-12-04T02:53:45;4.43;;;4.03;;
5951;SDS011;3001;42.622;23.194;2022-12-04T02:56:18;5.33;;;4.83;;
5951;SDS011;3001;42.622;23.194;2022-12-04T02:58:51;4.87;;;4.47;;
5951;SDS011;3001;42.622;23.194;2022-12-04T03:01:22;5.43;;;5.03;;
5951;SDS011;3001;42.622;23.194;2022-12-04T03:03:55;4.97;;;4.50;;
5951;SDS011;3001;42.622;23.194;2022-12-04T03:06:26;5.43;;;5.03;;
5951;SDS011;3001;42.622;23.194;2022-12-04T03:08:58;4.33;;;4.03;;
5951;SDS011;3001;42.622;23.194;2022-12-04T03:11:30;4.47;;;3.93;;
5951;SDS011;3001;42.622;23.194;2022-12-04T03:14:03;5.40;;;4.90;;
5951;SDS011;3001;42.622;23.194;2022-12-04T03:16:37;4.07;;;3.73;;
5951;SDS011;3001;42.622;23.194;2022-12-04T03:19:07;5.10;;;4.70;;
5951;SDS011;3001;42.622;23.194;2022-12-04T03:21:36;5.13;;;4.63;;
5951;SDS011;3001;42.622;23.194;2022-12-04T03:24:07;4.97;;;4.57;;
5951;SDS011;3001;42.622;23.194;2022-12-04T03:26:40;5.47;;;5.07;;
5951;SDS011;3001;42.622;23.194;2022-12-04T03:29:14;4.80;;;4.40;;
5951;SDS011;3001;42.622;23.194;2022-12-04T03:31:44;4.80;;;4.40;;
5951;SDS011;3001;42.622;23.194;2022-12-04T03:34:14;4.10;;;3.77;;
5951;SDS011;3001;42.622;23.194;2022-12-04T03:36:48;4.60;;;4.30;;
5951;SDS011;3001;42.622;23.194;2022-12-04T03:39:19;4.40;;;4.10;;
5951;SDS011;3001;42.622;23.194;2022-12-04T03:41:54;4.67;;;4.27;;
5951;SDS011;3001;42.622;23.194;2022-12-04T03:44:26;4.20;;;3.80;;
5951;SDS011;3001;42.622;23.194;2022-12-04T03:47:00;4.40;;;4.00;;
5951;SDS011;3001;42.622;23.194;2022-12-04T03:49:33;4.43;;;4.13;;
5951;SDS011;3001;42.622;23.194;2022-12-04T03:52:06;4.80;;;4.40;;
5951;SDS011;3001;42.622;23.194;2022-12-04T03:54:39;4.13;;;3.73;;
5951;SDS011;3001;42.622;23.194;2022-12-04T03:57:12;4.17;;;3.87;;
5951;SDS011;3001;42.622;23.194;2022-12-04T03:59:45;4.60;;;4.20;;
5951;SDS011;3001;42.622;23.194;2022-12-04T04:02:16;5.10;;;4.70;;
5951;SDS011;3001;42.622;23.194;2022-12-04T04:04:48;5.27;;;4.77;;
5951;SDS011;3001;42.622;23.194;2022-12-04T04:07:19;5.43;;;5.03;;
5951;SDS011;3001;42.622;23.194;2022-12-04T04:09:52;5.47;;;4.97;;
5951;SDS011;3001;42.622;23.194;2022-12-04T04:12:24;6.10;;;5.50;;
5951;SDS011;3001;42.622;23.194;2022-12-04T04:14:58;5.77;;;5.30;;
5951;SDS011;3001;42.622;23.194;2022-12-04T04:17:46;5.53;;;5.03;;
5951;SDS011;3001;42.622;23.194;2022-12-04T04:20:33;6.43;;;5.27;;
5951;SDS011;3001;42.622;23.194;2022-12-04T04:23:20;5.47;;;5.03;;
5951;SDS011;3001;42.622;23.194;2022-12-04T04:26:06;5.80;;;5.30;;
5951;SDS011;3001;42.622;23.194;2022-12-04T04:28:34;7.30;;;5.70;;
5951;SDS011;3001;42.622;23.194;2022-12-04T04:31:14;5.70;;;5.20;;
5951;SDS011;3001;42.622;23.194;2022-12-04T04:33:50;6.00;;;5.40;;
5951;SDS011;3001;42.622;23.194;2022-12-04T04:36:23;6.10;;;5.50;;
5951;SDS011;3001;42.622;23.194;2022-12-04T04:39:01;8.07;;;5.00;;
5951;SDS011;3001;42.622;23.194;2022-12-04T04:41:37;4.83;;;4.53;;
5951;SDS011;3001;42.622;23.194;2022-12-04T04:44:11;5.17;;;4.77;;
5951;SDS011;3001;42.622;23.194;2022-12-04T04:46:47;5.23;;;4.73;;
5951;SDS011;3001;42.622;23.194;2022-12-04T04:49:17;4.10;;;3.83;;
5951;SDS011;3001;42.622;23.194;2022-12-04T04:51:48;4.27;;;3.80;;
5951;SDS011;3001;42.622;23.194;2022-12-04T04:54:15;4.80;;;4.30;;
5951;SDS011;3001;42.622;23.194;2022-12-04T04:56:44;4.27;;;3.97;;
5951;SDS011;3001;42.622;23.194;2022-12-04T04:59:12;4.63;;;4.23;;
5951;SDS011;3001;42.622;23.194;2022-12-04T05:01:40;4.57;;;4.27;;
5951;SDS011;3001;42.622;23.194;2022-12-04T05:04:10;6.13;;;4.63;;
5951;SDS011;3001;42.622;23.194;2022-12-04T05:06:36;4.67;;;4.27;;
5951;SDS011;3001;42.622;23.194;2022-12-04T05:09:03;3.60;;;3.40;;
5951;SDS011;3001;42.622;23.194;2022-12-04T05:11:30;3.93;;;3.60;;
5951;SDS011;3001;42.622;23.194;2022-12-04T05:13:57;4.80;;;4.30;;
5951;SDS011;3001;42.622;23.194;2022-12-04T05:16:24;4.13;;;3.83;;
5951;SDS011;3001;42.622;23.194;2022-12-04T05:18:51;4.73;;;4.00;;
5951;SDS011;3001;42.622;23.194;2022-12-04T05:21:36;5.23;;;4.13;;
5951;SDS011;3001;42.622;23.194;2022-12-04T05:24:05;4.60;;;4.20;;
5951;SDS011;3001;42.622;23.194;2022-12-04T05:26:33;4.33;;;4.03;;
5951;SDS011;3001;42.622;23.194;2022-12-04T05:28:59;5.37;;;4.70;;
5951;SDS011;3001;42.622;23.194;2022-12-04T05:31:26;4.30;;;4.00;;
5951;SDS011;3001;42.622;23.194;2022-12-04T05:33:53;3.90;;;3.60;;
5951;SDS011;3001;42.622;23.194;2022-12-04T05:36:19;4.13;;;3.83;;
5951;SDS011;3001;42.622;23.194;2022-12-04T05:38:47;4.30;;;4.00;;
5951;SDS011;3001;42.622;23.194;2022-12-04T05:41:14;3.77;;;3.47;;
5951;SDS011;3001;42.622;23.194;2022-12-04T05:43:41;3.67;;;3.47;;
5951;SDS011;3001;42.622;23.194;2022-12-04T05:46:08;4.37;;;4.07;;
5951;SDS011;3001;42.622;23.194;2022-12-04T05:48:35;3.17;;;2.93;;
5951;SDS011;3001;42.622;23.194;2022-12-04T05:51:03;3.90;;;3.60;;
5951;SDS011;3001;42.622;23.194;2022-12-04T05:53:31;3.70;;;3.50;;
5951;SDS011;3001;42.622;23.194;2022-12-04T05:56:00;4.27;;;3.97;;
5951;SDS011;3001;42.622;23.194;2022-12-04T05:58:28;4.70;;;4.30;;
5951;SDS011;3001;42.622;23.194;2022-12-04T06:00:55;4.93;;;4.53;;
5951;SDS011;3001;42.622;23.194;2022-12-04T06:03:21;4.47;;;4.07;;
5951;SDS011;3001;42.622;23.194;2022-12-04T06:05:48;5.20;;;4.70;;
5951;SDS011;3001;42.622;23.194;2022-12-04T06:08:15;4.67;;;4.33;;
5951;SDS011;3001;42.622;23.194;2022-12-04T06:10:42;4.30;;;4.00;;
5951;SDS011;3001;42.622;23.194;2022-12-04T06:13:10;4.40;;;3.60;;
5951;SDS011;3001;42.622;23.194;2022-12-04T06:15:37;4.60;;;4.20;;
5951;SDS011;3001;42.622;23.194;2022-12-04T06:18:04;4.30;;;4.00;;
5951;SDS011;3001;42.622;23.194;2022-12-04T06:20:31;4.23;;;3.87;;
5951;SDS011;3001;42.622;23.194;2022-12-04T06:22:58;4.20;;;3.80;;
5951;SDS011;3001;42.622;23.194;2022-12-04T06:25:25;4.73;;;4.33;;
5951;SDS011;3001;42.622;23.194;2022-12-04T06:27:52;4.10;;;3.80;;
5951;SDS011;3001;42.622;23.194;2022-12-04T06:30:20;4.00;;;3.70;;
5951;SDS011;3001;42.622;23.194;2022-12-04T06:32:47;3.93;;;3.63;;
5951;SDS011;3001;42.622;23.194;2022-12-04T06:35:14;4.80;;;4.40;;
5951;SDS011;3001;42.622;23.194;2022-12-04T06:37:40;6.63;;;4.40;;
5951;SDS011;3001;42.622;23.194;2022-12-04T06:40:07;9.13;;;6.87;;
5951;SDS011;3001;42.622;23.194;2022-12-04T06:42:35;11.27;;;8.63;;
5951;SDS011;3001;42.622;23.194;2022-12-04T06:45:01;10.10;;;8.67;;
5951;SDS011;3001;42.622;23.194;2022-12-04T06:47:30;14.23;;;9.97;;
5951;SDS011;3001;42.622;23.194;2022-12-04T06:49:56;17.27;;;11.73;;
5951;SDS011;3001;42.622;23.194;2022-12-04T06:52:23;17.47;;;12.83;;
5951;SDS011;3001;42.622;23.194;2022-12-04T06:54:50;54.40;;;26.20;;
5951;SDS011;3001;42.622;23.194;2022-12-04T06:57:17;30.37;;;17.93;;
5951;SDS011;3001;42.622;23.194;2022-12-04T06:59:43;22.90;;;15.77;;
5951;SDS011;3001;42.622;23.194;2022-12-04T07:02:10;26.20;;;16.63;;
5951;SDS011;3001;42.622;23.194;2022-12-04T07:04:38;25.57;;;16.23;;
5951;SDS011;3001;42.622;23.194;2022-12-04T07:07:06;24.37;;;16.17;;
5951;SDS011;3001;42.622;23.194;2022-12-04T07:09:34;35.47;;;20.30;;
5951;SDS011;3001;42.622;23.194;2022-12-04T07:12:01;25.47;;;17.70;;
5951;SDS011;3001;42.622;23.194;2022-12-04T07:14:28;19.30;;;12.67;;
5951;SDS011;3001;42.622;23.194;2022-12-04T07:16:54;16.70;;;11.70;;
5951;SDS011;3001;42.622;23.194;2022-12-04T07:19:22;15.93;;;11.30;;
5951;SDS011;3001;42.622;23.194;2022-12-04T07:21:50;14.63;;;11.73;;
5951;SDS011;3001;42.622;23.194;2022-12-04T07:24:17;17.27;;;12.20;;
5951;SDS011;3001;42.622;23.194;2022-12-04T07:26:44;17.07;;;12.30;;
5951;SDS011;3001;42.622;23.194;2022-12-04T07:29:11;17.70;;;12.00;;
5951;SDS011;3001;42.622;23.194;2022-12-04T07:31:37;17.50;;;11.67;;
5951;SDS011;3001;42.622;23.194;2022-12-04T07:34:04;15.77;;;10.93;;
5951;SDS011;3001;42.622;23.194;2022-12-04T07:36:32;14.97;;;11.90;;
5951;SDS011;3001;42.622;23.194;2022-12-04T07:39:00;14.47;;;12.50;;
5951;SDS011;3001;42.622;23.194;2022-12-04T07:41:29;16.30;;;12.43;;
5951;SDS011;3001;42.622;23.194;2022-12-04T07:43:55;16.00;;;13.20;;
5951;SDS011;3001;42.622;23.194;2022-12-04T07:46:23;19.67;;;14.57;;
5951;SDS011;3001;42.622;23.194;2022-12-04T07:48:51;22.23;;;16.17;;
5951;SDS011;3001;42.622;23.194;2022-12-04T07:51:18;25.97;;;17.27;;
5951;SDS011;3001;42.622;23.194;2022-12-04T07:53:46;21.93;;;15.27;;
5951;SDS011;3001;42.622;23.194;2022-12-04T07:56:15;17.30;;;13.33;;
5951;SDS011;3001;42.622;23.194;2022-12-04T07:58:42;17.80;;;12.43;;
5951;SDS011;3001;42.622;23.194;2022-12-04T08:01:10;18.20;;;12.77;;
5951;SDS011;3001;42.622;23.194;2022-12-04T08:03:38;18.27;;;13.20;;
5951;SDS011;3001;42.622;23.194;2022-12-04T08:06:05;18.90;;;13.00;;
5951;SDS011;3001;42.622;23.194;2022-12-04T08:08:33;20.70;;;14.33;;
5951;SDS011;3001;42.622;23.194;2022-12-04T08:11:03;18.97;;;14.03;;
5951;SDS011;3001;42.622;23.194;2022-12-04T08:13:33;19.53;;;13.77;;
5951;SDS011;3001;42.622;23.194;2022-12-04T08:16:00;14.53;;;13.00;;
5951;SDS011;3001;42.622;23.194;2022-12-04T08:18:27;15.83;;;13.73;;
5951;SDS011;3001;42.622;23.194;2022-12-04T08:20:54;22.63;;;13.80;;
5951;SDS011;3001;42.622;23.194;2022-12-04T08:23:28;17.53;;;13.83;;
5951;SDS011;3001;42.622;23.194;2022-12-04T08:25:56;19.57;;;13.97;;
5951;SDS011;3001;42.622;23.194;2022-12-04T08:28:23;19.53;;;14.90;;
5951;SDS011;3001;42.622;23.194;2022-12-04T08:30:51;19.27;;;14.10;;
5951;SDS011;3001;42.622;23.194;2022-12-04T08:33:18;24.17;;;15.67;;
5951;SDS011;3001;42.622;23.194;2022-12-04T08:35:45;23.50;;;15.97;;
5951;SDS011;3001;42.622;23.194;2022-12-04T08:38:12;23.17;;;16.23;;
5951;SDS011;3001;42.622;23.194;2022-12-04T08:40:39;23.70;;;16.50;;
5951;SDS011;3001;42.622;23.194;2022-12-04T08:43:05;29.10;;;17.57;;
5951;SDS011;3001;42.622;23.194;2022-12-04T08:45:32;21.87;;;16.70;;
5951;SDS011;3001;42.622;23.194;2022-12-04T08:48:00;26.63;;;16.80;;
5951;SDS011;3001;42.622;23.194;2022-12-04T08:50:27;21.00;;;14.40;;
5951;SDS011;3001;42.622;23.194;2022-12-04T08:52:54;19.70;;;14.20;;
5951;SDS011;3001;42.622;23.194;2022-12-04T08:55:20;21.87;;;14.90;;
5951;SDS011;3001;42.622;23.194;2022-12-04T08:57:49;20.87;;;14.43;;
5951;SDS011;3001;42.622;23.194;2022-12-04T09:00:17;24.10;;;14.47;;
5951;SDS011;3001;42.622;23.194;2022-12-04T09:02:46;18.73;;;12.40;;
5951;SDS011;3001;42.622;23.194;2022-12-04T09:05:15;16.67;;;12.23;;
5951;SDS011;3001;42.622;23.194;2022-12-04T09:07:42;14.50;;;11.83;;
5951;SDS011;3001;42.622;23.194;2022-12-04T09:10:09;17.40;;;13.03;;
5951;SDS011;3001;42.622;23.194;2022-12-04T09:12:37;14.23;;;11.27;;
5951;SDS011;3001;42.622;23.194;2022-12-04T09:15:04;13.77;;;11.30;;
5951;SDS011;3001;42.622;23.194;2022-12-04T09:17:32;14.63;;;11.47;;
5951;SDS011;3001;42.622;23.194;2022-12-04T09:19:59;14.27;;;12.33;;
5951;SDS011;3001;42.622;23.194;2022-12-04T09:22:28;14.63;;;11.47;;
5951;SDS011;3001;42.622;23.194;2022-12-04T09:24:55;12.67;;;10.70;;
5951;SDS011;3001;42.622;23.194;2022-12-04T09:27:21;13.30;;;10.70;;
5951;SDS011;3001;42.622;23.194;2022-12-04T09:29:48;13.63;;;10.37;;
5951;SDS011;3001;42.622;23.194;2022-12-04T09:32:15;11.50;;;10.17;;
5951;SDS011;3001;42.622;23.194;2022-12-04T09:34:42;12.60;;;9.57;;
5951;SDS011;3001;42.622;23.194;2022-12-04T09:37:08;9.30;;;8.33;;
5951;SDS011;3001;42.622;23.194;2022-12-04T09:39:36;12.10;;;9.10;;
5951;SDS011;3001;42.622;23.194;2022-12-04T09:42:16;13.03;;;9.13;;
5951;SDS011;3001;42.622;23.194;2022-12-04T09:44:51;9.40;;;8.50;;
5951;SDS011;3001;42.622;23.194;2022-12-04T09:47:25;7.83;;;7.17;;
5951;SDS011;3001;42.622;23.194;2022-12-04T09:49:55;7.90;;;7.30;;
5951;SDS011;3001;42.622;23.194;2022-12-04T09:52:34;6.53;;;6.00;;
5951;SDS011;3001;42.622;23.194;2022-12-04T09:55:12;6.40;;;5.80;;
5951;SDS011;3001;42.622;23.194;2022-12-04T09:57:44;8.30;;;5.30;;
5951;SDS011;3001;42.622;23.194;2022-12-04T10:00:14;5.60;;;5.20;;
5951;SDS011;3001;42.622;23.194;2022-12-04T10:02:43;5.70;;;5.20;;
5951;SDS011;3001;42.622;23.194;2022-12-04T10:05:15;5.33;;;4.93;;
5951;SDS011;3001;42.622;23.194;2022-12-04T10:07:45;5.30;;;4.90;;
5951;SDS011;3001;42.622;23.194;2022-12-04T10:10:25;6.30;;;5.10;;
5951;SDS011;3001;42.622;23.194;2022-12-04T10:13:01;6.20;;;5.80;;
5951;SDS011;3001;42.622;23.194;2022-12-04T10:15:36;7.27;;;6.57;;
5951;SDS011;3001;42.622;23.194;2022-12-04T10:18:15;4.73;;;4.43;;
5951;SDS011;3001;42.622;23.194;2022-12-04T10:21:00;4.93;;;4.60;;
5951;SDS011;3001;42.622;23.194;2022-12-04T10:23:39;5.67;;;5.27;;
5951;SDS011;3001;42.622;23.194;2022-12-04T10:26:19;5.40;;;5.00;;
5951;SDS011;3001;42.622;23.194;2022-12-04T10:28:51;4.47;;;4.17;;
5951;SDS011;3001;42.622;23.194;2022-12-04T10:31:21;4.80;;;4.40;;
5951;SDS011;3001;42.622;23.194;2022-12-04T10:33:50;4.50;;;4.20;;
5951;SDS011;3001;42.622;23.194;2022-12-04T10:36:21;5.13;;;4.73;;
5951;SDS011;3001;42.622;23.194;2022-12-04T10:38:52;4.97;;;4.57;;
5951;SDS011;3001;42.622;23.194;2022-12-04T10:41:26;4.97;;;4.63;;
5951;SDS011;3001;42.622;23.194;2022-12-04T10:43:56;5.37;;;4.90;;
5951;SDS011;3001;42.622;23.194;2022-12-04T10:46:23;5.87;;;5.30;;
5951;SDS011;3001;42.622;23.194;2022-12-04T10:48:53;4.50;;;4.13;;
5951;SDS011;3001;42.622;23.194;2022-12-04T10:51:23;4.90;;;4.50;;
5951;SDS011;3001;42.622;23.194;2022-12-04T10:53:50;5.63;;;5.23;;
5951;SDS011;3001;42.622;23.194;2022-12-04T10:56:18;6.33;;;5.83;;
5951;SDS011;3001;42.622;23.194;2022-12-04T10:58:59;5.67;;;5.20;;
5951;SDS011;3001;42.622;23.194;2022-12-04T11:01:27;7.00;;;6.10;;
5951;SDS011;3001;42.622;23.194;2022-12-04T11:04:01;6.50;;;6.03;;
5951;SDS011;3001;42.622;23.194;2022-12-04T11:06:31;5.67;;;5.17;;
5951;SDS011;3001;42.622;23.194;2022-12-04T11:08:58;5.07;;;4.77;;
5951;SDS011;3001;42.622;23.194;2022-12-04T11:11:28;5.80;;;5.33;;
5951;SDS011;3001;42.622;23.194;2022-12-04T11:14:03;4.77;;;4.47;;
5951;SDS011;3001;42.622;23.194;2022-12-04T11:16:34;5.57;;;5.17;;
5951;SDS011;3001;42.622;23.194;2022-12-04T11:19:02;5.70;;;5.30;;
5951;SDS011;3001;42.622;23.194;2022-12-04T11:21:43;5.47;;;5.10;;
5951;SDS011;3001;42.622;23.194;2022-12-04T11:24:14;5.70;;;4.90;;
5951;SDS011;3001;42.622;23.194;2022-12-04T11:26:45;5.20;;;4.90;;
5951;SDS011;3001;42.622;23.194;2022-12-04T11:29:15;4.40;;;4.10;;
5951;SDS011;3001;42.622;23.194;2022-12-04T11:31:46;5.07;;;4.67;;
5951;SDS011;3001;42.622;23.194;2022-12-04T11:34:16;4.60;;;4.30;;
5951;SDS011;3001;42.622;23.194;2022-12-04T11:36:48;7.17;;;5.53;;
5951;SDS011;3001;42.622;23.194;2022-12-04T11:39:18;4.83;;;4.43;;
5951;SDS011;3001;42.622;23.194;2022-12-04T11:41:57;4.93;;;4.53;;
5951;SDS011;3001;42.622;23.194;2022-12-04T11:44:27;3.90;;;3.70;;
5951;SDS011;3001;42.622;23.194;2022-12-04T11:46:56;4.67;;;4.23;;
5951;SDS011;3001;42.622;23.194;2022-12-04T11:49:26;5.20;;;4.67;;
5951;SDS011;3001;42.622;23.194;2022-12-04T11:51:56;4.73;;;4.40;;
5951;SDS011;3001;42.622;23.194;2022-12-04T11:54:33;5.10;;;4.80;;
5951;SDS011;3001;42.622;23.194;2022-12-04T11:57:13;5.10;;;4.80;;
5951;SDS011;3001;42.622;23.194;2022-12-04T11:59:53;5.80;;;5.40;;
5951;SDS011;3001;42.622;23.194;2022-12-04T12:02:43;6.50;;;5.70;;
5951;SDS011;3001;42.622;23.194;2022-12-04T12:05:28;7.00;;;6.40;;
5951;SDS011;3001;42.622;23.194;2022-12-04T12:08:21;7.03;;;6.43;;
5951;SDS011;3001;42.622;23.194;2022-12-04T12:11:00;7.33;;;6.70;;
5951;SDS011;3001;42.622;23.194;2022-12-04T12:13:38;19.43;;;13.13;;
5951;SDS011;3001;42.622;23.194;2022-12-04T12:16:18;19.13;;;12.23;;
5951;SDS011;3001;42.622;23.194;2022-12-04T12:19:07;7.67;;;7.07;;
5951;SDS011;3001;42.622;23.194;2022-12-04T12:21:56;6.97;;;6.53;;
5951;SDS011;3001;42.622;23.194;2022-12-04T12:24:33;6.43;;;5.90;;
5951;SDS011;3001;42.622;23.194;2022-12-04T12:27:16;6.40;;;6.00;;
5951;SDS011;3001;42.622;23.194;2022-12-04T12:30:07;6.50;;;6.00;;
5951;SDS011;3001;42.622;23.194;2022-12-04T12:32:55;7.60;;;7.00;;
5951;SDS011;3001;42.622;23.194;2022-12-04T12:35:29;9.50;;;7.47;;
5951;SDS011;3001;42.622;23.194;2022-12-04T12:38:00;9.47;;;7.63;;
5951;SDS011;3001;42.622;23.194;2022-12-04T12:40:31;8.30;;;7.53;;
5951;SDS011;3001;42.622;23.194;2022-12-04T12:43:02;7.87;;;7.17;;
5951;SDS011;3001;42.622;23.194;2022-12-04T12:45:35;7.47;;;6.87;;
5951;SDS011;3001;42.622;23.194;2022-12-04T12:48:15;8.67;;;7.87;;
5951;SDS011;3001;42.622;23.194;2022-12-04T12:50:52;8.47;;;7.67;;
5951;SDS011;3001;42.622;23.194;2022-12-04T12:53:24;8.70;;;7.90;;
5951;SDS011;3001;42.622;23.194;2022-12-04T12:55:56;8.53;;;7.70;;
5951;SDS011;3001;42.622;23.194;2022-12-04T12:58:27;8.23;;;7.60;;
5951;SDS011;3001;42.622;23.194;2022-12-04T13:01:01;8.23;;;7.43;;
5951;SDS011;3001;42.622;23.194;2022-12-04T13:03:36;10.07;;;8.67;;
5951;SDS011;3001;42.622;23.194;2022-12-04T13:06:11;9.83;;;8.93;;
5951;SDS011;3001;42.622;23.194;2022-12-04T13:08:42;9.13;;;8.23;;
5951;SDS011;3001;42.622;23.194;2022-12-04T13:11:20;9.87;;;8.93;;
5951;SDS011;3001;42.622;23.194;2022-12-04T13:13:51;8.90;;;8.07;;
5951;SDS011;3001;42.622;23.194;2022-12-04T13:16:22;9.50;;;8.57;;
5951;SDS011;3001;42.622;23.194;2022-12-04T13:18:54;9.20;;;8.40;;
5951;SDS011;3001;42.622;23.194;2022-12-04T13:21:30;9.43;;;8.40;;
5951;SDS011;3001;42.622;23.194;2022-12-04T13:24:15;8.90;;;8.03;;
5951;SDS011;3001;42.622;23.194;2022-12-04T13:26:55;9.20;;;8.30;;
5951;SDS011;3001;42.622;23.194;2022-12-04T13:29:36;10.13;;;8.93;;
5951;SDS011;3001;42.622;23.194;2022-12-04T13:32:17;13.53;;;11.67;;
5951;SDS011;3001;42.622;23.194;2022-12-04T13:35:08;10.77;;;8.93;;
5951;SDS011;3001;42.622;23.194;2022-12-04T13:37:49;9.93;;;8.93;;
5951;SDS011;3001;42.622;23.194;2022-12-04T13:40:31;9.50;;;8.67;;
5951;SDS011;3001;42.622;23.194;2022-12-04T13:45:55;13.63;;;11.70;;
5951;SDS011;3001;42.622;23.194;2022-12-04T13:48:26;16.27;;;13.20;;
5951;SDS011;3001;42.622;23.194;2022-12-04T13:51:01;10.73;;;9.03;;
5951;SDS011;3001;42.622;23.194;2022-12-04T13:53:30;8.23;;;7.43;;
5951;SDS011;3001;42.622;23.194;2022-12-04T13:55:59;8.90;;;7.60;;
5951;SDS011;3001;42.622;23.194;2022-12-04T13:58:26;8.67;;;7.80;;
5951;SDS011;3001;42.622;23.194;2022-12-04T14:00:59;10.13;;;8.87;;
5951;SDS011;3001;42.622;23.194;2022-12-04T14:03:28;10.20;;;9.10;;
5951;SDS011;3001;42.622;23.194;2022-12-04T14:05:59;8.90;;;8.03;;
5951;SDS011;3001;42.622;23.194;2022-12-04T14:08:33;10.70;;;9.07;;
5951;SDS011;3001;42.622;23.194;2022-12-04T14:11:04;17.57;;;11.50;;
5951;SDS011;3001;42.622;23.194;2022-12-04T14:13:40;14.93;;;11.17;;
5951;SDS011;3001;42.622;23.194;2022-12-04T14:16:16;10.40;;;9.40;;
5951;SDS011;3001;42.622;23.194;2022-12-04T14:18:46;14.27;;;11.70;;
5951;SDS011;3001;42.622;23.194;2022-12-04T14:21:15;13.43;;;10.50;;
5951;SDS011;3001;42.622;23.194;2022-12-04T14:23:42;14.30;;;10.10;;
5951;SDS011;3001;42.622;23.194;2022-12-04T14:26:20;14.77;;;10.33;;
5951;SDS011;3001;42.622;23.194;2022-12-04T14:28:49;10.67;;;9.57;;
5951;SDS011;3001;42.622;23.194;2022-12-04T14:31:29;10.07;;;9.07;;
5951;SDS011;3001;42.622;23.194;2022-12-04T14:34:00;10.53;;;9.27;;
5951;SDS011;3001;42.622;23.194;2022-12-04T14:36:32;14.33;;;10.70;;
5951;SDS011;3001;42.622;23.194;2022-12-04T14:39:04;14.03;;;10.57;;
5951;SDS011;3001;42.622;23.194;2022-12-04T14:41:37;13.93;;;9.40;;
5951;SDS011;3001;42.622;23.194;2022-12-04T14:44:04;18.27;;;10.90;;
5951;SDS011;3001;42.622;23.194;2022-12-04T14:46:33;16.53;;;10.30;;
5951;SDS011;3001;42.622;23.194;2022-12-04T14:49:13;14.33;;;10.30;;
5951;SDS011;3001;42.622;23.194;2022-12-04T14:51:52;12.80;;;10.50;;
5951;SDS011;3001;42.622;23.194;2022-12-04T14:54:27;12.53;;;10.20;;
5951;SDS011;3001;42.622;23.194;2022-12-04T14:57:02;13.33;;;9.87;;
5951;SDS011;3001;42.622;23.194;2022-12-04T14:59:44;14.83;;;11.27;;
5951;SDS011;3001;42.622;23.194;2022-12-04T15:02:15;10.93;;;9.77;;
5951;SDS011;3001;42.622;23.194;2022-12-04T15:04:44;13.63;;;9.57;;
5951;SDS011;3001;42.622;23.194;2022-12-04T15:07:21;9.57;;;8.47;;
5951;SDS011;3001;42.622;23.194;2022-12-04T15:09:50;9.43;;;8.33;;
5951;SDS011;3001;42.622;23.194;2022-12-04T15:12:38;13.33;;;9.97;;
5951;SDS011;3001;42.622;23.194;2022-12-04T15:15:13;10.40;;;8.60;;
5951;SDS011;3001;42.622;23.194;2022-12-04T15:17:43;12.23;;;8.50;;
5951;SDS011;3001;42.622;23.194;2022-12-04T15:20:21;11.20;;;8.70;;
5951;SDS011;3001;42.622;23.194;2022-12-04T15:22:49;12.27;;;9.70;;